createdAt,value
2023-05-10T00:00:05.936Z,100433.97
2023-05-10T00:03:08.893Z,100433.81
2023-05-10T00:06:11.796Z,100430.97
2023-05-10T00:09:14.988Z,100428.19
2023-05-10T00:12:17.644Z,100426.63
2023-05-10T00:15:20.304Z,100424.97
2023-05-10T00:18:22.991Z,100426.69
2023-05-10T00:21:25.647Z,100418.00
2023-05-10T00:24:28.305Z,100414.41
2023-05-10T00:27:31.048Z,100417.06
2023-05-10T00:30:33.687Z,100407.59
2023-05-10T00:33:36.260Z,100408.28
2023-05-10T00:36:38.867Z,100408.03
2023-05-10T00:39:41.528Z,100409.97
2023-05-10T00:42:47.173Z,100407.00
2023-05-10T00:45:49.998Z,100406.53
2023-05-10T00:48:53.118Z,100404.38
2023-05-10T00:51:55.942Z,100406.94
2023-05-10T00:54:58.718Z,100407.25
2023-05-10T00:58:01.562Z,100400.56
2023-05-10T01:01:04.288Z,100400.97
2023-05-10T01:04:07.115Z,100400.66
2023-05-10T01:07:09.735Z,100397.06
2023-05-10T01:10:12.959Z,100397.59
2023-05-10T01:13:21.333Z,100393.00
2023-05-10T01:16:25.476Z,100392.03
2023-05-10T01:19:29.923Z,100394.50
2023-05-10T01:23:18.706Z,100390.16
2023-05-10T01:26:27.687Z,100387.59
2023-05-10T01:30:14.689Z,100388.94
2023-05-10T01:33:24.682Z,100386.09
2023-05-10T01:36:41.615Z,100382.75
2023-05-10T01:39:51.540Z,100376.50
2023-05-10T01:42:56.622Z,100379.37
2023-05-10T01:46:11.743Z,100378.75
2023-05-10T01:49:27.745Z,100384.53
2023-05-10T01:52:43.386Z,100385.28
2023-05-10T01:55:48.129Z,100376.50
2023-05-10T01:58:51.176Z,100380.66
2023-05-10T02:01:54.346Z,100376.94
2023-05-10T02:04:58.549Z,100373.66
2023-05-10T02:08:02.499Z,100371.34
2023-05-10T02:11:06.692Z,100368.72
2023-05-10T02:14:10.991Z,100355.72
2023-05-10T02:17:14.196Z,100365.72
2023-05-10T02:20:18.121Z,100367.69
2023-05-10T02:23:21.539Z,100363.72
2023-05-10T02:26:25.217Z,100362.72
2023-05-10T02:29:28.423Z,100364.19
2023-05-10T02:32:31.400Z,100359.41
2023-05-10T02:35:34.734Z,100356.56
2023-05-10T02:38:37.965Z,100354.41
2023-05-10T02:41:42.594Z,100354.69
2023-05-10T02:44:48.506Z,100351.72
2023-05-10T02:47:51.216Z,100350.84
2023-05-10T02:50:54.351Z,100358.84
2023-05-10T02:53:57.990Z,100361.12
2023-05-10T02:57:02.513Z,100360.75
2023-05-10T03:00:06.117Z,100367.66
2023-05-10T03:03:09.672Z,100366.16
2023-05-10T03:06:12.528Z,100369.41
2023-05-10T03:09:16.833Z,100372.81
2023-05-10T03:12:58.304Z,100371.72
2023-05-10T03:16:13.857Z,100362.13
2023-05-10T03:19:26.085Z,100380.13
2023-05-10T03:22:53.407Z,100371.41
2023-05-10T03:25:56.476Z,100376.25
2023-05-10T03:29:00.254Z,100368.87
2023-05-10T03:32:03.104Z,100369.09
2023-05-10T03:35:13.563Z,100377.19
2023-05-10T03:38:16.228Z,100378.66
2023-05-10T03:41:18.931Z,100379.19
2023-05-10T03:44:21.631Z,100378.22
2023-05-10T03:47:24.463Z,100374.44
2023-05-10T03:50:27.560Z,100373.16
2023-05-10T03:53:30.428Z,100371.72
2023-05-10T03:56:33.708Z,100379.37
2023-05-10T03:59:37.584Z,100372.06
2023-05-10T04:02:40.312Z,100374.50
2023-05-10T04:05:43.112Z,100371.94
2023-05-10T04:08:45.887Z,100379.41
2023-05-10T04:11:48.638Z,100388.63
2023-05-10T04:14:52.261Z,100389.28
2023-05-10T04:17:54.910Z,100390.16
2023-05-10T04:20:57.510Z,100388.69
2023-05-10T04:24:00.211Z,100394.78
2023-05-10T04:27:03.075Z,100393.47
2023-05-10T04:30:06.519Z,100395.09
2023-05-10T04:33:09.338Z,100403.00
2023-05-10T04:36:12.114Z,100406.47
2023-05-10T04:39:17.897Z,100404.69
2023-05-10T04:42:20.634Z,100405.53
2023-05-10T04:45:23.478Z,100406.69
2023-05-10T04:48:26.190Z,100418.38
2023-05-10T04:51:28.850Z,100426.59
2023-05-10T04:54:31.493Z,100419.50
2023-05-10T04:57:34.169Z,100425.75
2023-05-10T05:00:36.824Z,100425.94
2023-05-10T05:03:39.667Z,100427.56
2023-05-10T05:06:42.476Z,100423.09
2023-05-10T05:09:48.374Z,100420.97
2023-05-10T05:12:51.134Z,100426.03
2023-05-10T05:15:54.607Z,100422.38
2023-05-10T05:19:00.919Z,100425.03
2023-05-10T05:22:03.560Z,100394.84
2023-05-10T05:25:07.138Z,100417.34
2023-05-10T05:28:09.829Z,100423.09
2023-05-10T05:31:15.953Z,100422.75
2023-05-10T05:34:18.951Z,100426.22
2023-05-10T05:37:25.651Z,100431.91
2023-05-10T05:40:28.308Z,100433.00
2023-05-10T05:43:31.179Z,100436.75
2023-05-10T05:46:33.916Z,100440.56
2023-05-10T05:49:36.757Z,100442.91
2023-05-10T05:52:39.498Z,100447.94
2023-05-10T05:55:42.208Z,100451.22
2023-05-10T05:58:45.971Z,100445.62
2023-05-10T06:01:48.970Z,100458.47
2023-05-10T06:04:51.982Z,100454.31
2023-05-10T06:07:54.679Z,100457.75
2023-05-10T06:10:59.785Z,100455.41
2023-05-10T06:14:03.136Z,100454.22
2023-05-10T06:17:07.977Z,100451.69
2023-05-10T06:20:11.180Z,100462.81
2023-05-10T06:23:13.836Z,100458.06
2023-05-10T06:26:16.540Z,100451.03
2023-05-10T06:29:19.283Z,100447.37
2023-05-10T06:32:22.053Z,100455.03
2023-05-10T06:35:25.387Z,100453.91
2023-05-10T06:38:28.562Z,100451.31
2023-05-10T06:41:31.278Z,100444.09
2023-05-10T06:44:34.424Z,100454.25
2023-05-10T06:47:38.987Z,100461.56
2023-05-10T06:50:42.157Z,100460.31
2023-05-10T06:54:04.771Z,100463.97
2023-05-10T06:57:16.120Z,100455.84
2023-05-10T07:00:26.545Z,100447.25
2023-05-10T07:03:29.231Z,100443.81
2023-05-10T07:06:35.030Z,100448.16
2023-05-10T07:09:37.763Z,100448.62
2023-05-10T07:12:40.874Z,100453.13
2023-05-10T07:15:43.659Z,100449.56
2023-05-10T07:18:46.336Z,100444.66
2023-05-10T07:21:49.137Z,100451.25
2023-05-10T07:24:51.779Z,100451.47
2023-05-10T07:27:54.384Z,100450.75
2023-05-10T07:30:57.835Z,100444.22
2023-05-10T07:34:00.557Z,100446.59
2023-05-10T07:37:03.339Z,100447.81
2023-05-10T07:40:06.844Z,100440.53
2023-05-10T07:43:09.560Z,100447.19
2023-05-10T07:46:12.428Z,100455.59
2023-05-10T07:49:15.150Z,100449.38
2023-05-10T07:52:17.856Z,100442.28
2023-05-10T07:55:22.276Z,100446.97
2023-05-10T07:58:25.337Z,100445.38
2023-05-10T08:01:28.435Z,100447.00
2023-05-10T08:04:31.331Z,100443.53
2023-05-10T08:07:34.756Z,100467.03
2023-05-10T08:10:37.932Z,100444.53
2023-05-10T08:13:43.819Z,100434.94
2023-05-10T08:16:46.505Z,100449.19
2023-05-10T08:19:49.152Z,100442.88
2023-05-10T08:22:52.088Z,100448.38
2023-05-10T08:25:54.708Z,100450.81
2023-05-10T08:28:57.363Z,100460.59
2023-05-10T08:32:00.015Z,100460.19
2023-05-10T08:35:06.199Z,100460.19
2023-05-10T08:38:08.857Z,100457.84
2023-05-10T08:41:12.474Z,100462.88
2023-05-10T08:44:15.486Z,100452.72
2023-05-10T08:47:19.566Z,100462.94
2023-05-10T08:50:23.126Z,100462.56
2023-05-10T08:53:29.130Z,100454.47
2023-05-10T08:56:31.813Z,100457.37
2023-05-10T08:59:34.647Z,100461.53
2023-05-10T09:02:38.425Z,100467.16
2023-05-10T09:05:42.672Z,100440.50
2023-05-10T09:08:46.233Z,100456.63
2023-05-10T09:11:49.041Z,100454.63
2023-05-10T09:14:53.575Z,100448.31
2023-05-10T09:17:56.660Z,100447.66
2023-05-10T09:20:59.338Z,100452.62
2023-05-10T09:24:05.802Z,100446.63
2023-05-10T09:27:08.378Z,100447.78
2023-05-10T09:30:11.565Z,100446.16
2023-05-10T09:33:14.256Z,100452.72
2023-05-10T09:36:17.394Z,100451.44
2023-05-10T09:39:20.179Z,100448.28
2023-05-10T09:42:24.462Z,100446.94
2023-05-10T09:45:29.532Z,100452.19
2023-05-10T09:48:32.528Z,100449.25
2023-05-10T09:51:36.926Z,100440.97
2023-05-10T09:54:49.128Z,100440.19
2023-05-10T09:58:01.861Z,100427.78
2023-05-10T10:01:04.986Z,100441.31
2023-05-10T10:04:09.985Z,100431.28
2023-05-10T10:07:12.759Z,100429.59
2023-05-10T10:10:15.749Z,100430.75
2023-05-10T10:13:18.757Z,100435.75
2023-05-10T10:16:21.924Z,100428.53
2023-05-10T10:19:24.676Z,100438.78
2023-05-10T10:22:27.338Z,100431.28
2023-05-10T10:25:30.451Z,100413.03
2023-05-10T10:29:01.728Z,100419.41
2023-05-10T10:32:12.211Z,100426.03
2023-05-10T10:35:15.080Z,100418.03
2023-05-10T10:38:18.569Z,100414.75
2023-05-10T10:41:33.437Z,100417.31
2023-05-10T10:44:39.143Z,100413.66
2023-05-10T10:47:44.402Z,100400.31
2023-05-10T10:50:50.357Z,100396.28
2023-05-10T10:53:53.044Z,100397.06
2023-05-10T10:57:24.604Z,100397.09
2023-05-10T11:00:32.639Z,100392.25
2023-05-10T11:03:35.235Z,100385.06
2023-05-10T11:06:38.053Z,100390.97
2023-05-10T11:09:41.529Z,100397.50
2023-05-10T11:12:53.447Z,100390.75
2023-05-10T11:15:56.178Z,100372.94
2023-05-10T11:19:02.975Z,100372.56
2023-05-10T11:22:06.019Z,100375.66
2023-05-10T11:25:11.953Z,100370.84
2023-05-10T11:28:14.772Z,100373.56
2023-05-10T11:31:18.724Z,100381.56
2023-05-10T11:34:26.075Z,100363.50
2023-05-10T11:37:33.533Z,100365.13
2023-05-10T11:40:37.117Z,100367.72
2023-05-10T11:43:41.155Z,100364.28
2023-05-10T11:46:44.121Z,100374.44
2023-05-10T11:49:47.574Z,100362.81
2023-05-10T11:52:54.086Z,100371.91
2023-05-10T11:55:56.882Z,100357.06
2023-05-10T11:58:59.810Z,100354.66
2023-05-10T12:02:02.432Z,100352.66
2023-05-10T12:05:06.632Z,100348.75
2023-05-10T12:08:16.610Z,100351.06
2023-05-10T12:11:20.513Z,100337.06
2023-05-10T12:14:23.675Z,100331.84
2023-05-10T12:17:29.217Z,100335.41
2023-05-10T12:20:32.079Z,100342.31
2023-05-10T12:23:34.725Z,100335.41
2023-05-10T12:29:55.872Z,100338.81
2023-05-10T12:33:10.312Z,100324.34
2023-05-10T12:36:15.582Z,100318.28
2023-05-10T12:39:18.173Z,100323.25
2023-05-10T12:42:22.075Z,100325.06
2023-05-10T12:45:27.510Z,100311.69
2023-05-10T12:48:32.220Z,100299.16
2023-05-10T12:51:34.738Z,100311.41
2023-05-10T12:54:37.397Z,100309.31
2023-05-10T12:57:40.012Z,100296.47
2023-05-10T13:00:42.612Z,100305.47
2023-05-10T13:03:45.427Z,100297.44
2023-05-10T13:06:48.115Z,100286.59
2023-05-10T13:09:53.683Z,100293.28
2023-05-10T13:12:56.444Z,100288.59
2023-05-10T13:15:59.085Z,100289.06
2023-05-10T13:19:01.750Z,100282.06
2023-05-10T13:22:04.436Z,100276.66
2023-05-10T13:25:07.176Z,100273.19
2023-05-10T13:28:09.807Z,100274.03
2023-05-10T13:31:12.445Z,100270.19
2023-05-10T13:34:15.098Z,100261.63
2023-05-10T13:37:17.662Z,100262.12
2023-05-10T13:40:20.486Z,100268.16
2023-05-10T13:43:23.186Z,100266.00
2023-05-10T13:46:25.891Z,100261.22
2023-05-10T13:49:28.542Z,100258.25
2023-05-10T13:52:31.297Z,100265.75
2023-05-10T13:55:34.796Z,100254.34
2023-05-10T13:58:37.552Z,100254.28
2023-05-10T14:01:40.168Z,100252.56
2023-05-10T14:04:42.793Z,100240.69
2023-05-10T14:07:45.378Z,100231.00
2023-05-10T14:10:48.056Z,100231.28
2023-05-10T14:13:50.688Z,100238.62
2023-05-10T14:16:53.361Z,100236.97
2023-05-10T14:19:55.961Z,100234.88
2023-05-10T14:23:00.846Z,100229.25
2023-05-10T14:26:05.058Z,100241.06
2023-05-10T14:29:09.946Z,100231.66
2023-05-10T14:32:17.910Z,100224.13
2023-05-10T14:35:22.165Z,100232.41
2023-05-10T14:38:25.434Z,100221.94
2023-05-10T14:41:28.982Z,100229.63
2023-05-10T14:44:31.708Z,100231.97
2023-05-10T14:47:34.413Z,100225.34
2023-05-10T14:50:37.641Z,100228.53
2023-05-10T14:53:40.315Z,100229.41
2023-05-10T14:56:42.969Z,100225.91
2023-05-10T14:59:45.741Z,100232.66
2023-05-10T15:02:49.504Z,100224.97
2023-05-10T15:05:53.167Z,100223.44
2023-05-10T15:08:55.712Z,100223.56
2023-05-10T15:11:58.312Z,100231.28
2023-05-10T15:15:01.020Z,100223.03
2023-05-10T15:18:03.861Z,100230.25
2023-05-10T15:21:06.421Z,100226.84
2023-05-10T15:24:09.744Z,100218.31
2023-05-10T15:27:12.673Z,100216.81
2023-05-10T15:30:15.622Z,100217.97
2023-05-10T15:33:18.884Z,100224.34
2023-05-10T15:36:21.973Z,100219.81
2023-05-10T15:39:24.570Z,100223.50
2023-05-10T15:42:27.167Z,100222.16
2023-05-10T15:45:29.840Z,100222.19
2023-05-10T15:48:32.624Z,100220.78
2023-05-10T15:51:36.621Z,100222.91
2023-05-10T15:54:39.888Z,100223.66
2023-05-10T15:57:44.136Z,100217.97
2023-05-10T16:00:46.870Z,100223.44
2023-05-10T16:03:49.572Z,100223.03
2023-05-10T16:06:52.386Z,100216.53
2023-05-10T16:09:55.090Z,100208.91
2023-05-10T16:12:57.802Z,100214.75
2023-05-10T16:16:01.816Z,100208.78
2023-05-10T16:19:04.738Z,100212.19
2023-05-10T16:22:07.881Z,100216.37
2023-05-10T16:25:12.712Z,100215.81
2023-05-10T16:28:16.206Z,100215.22
2023-05-10T16:31:20.159Z,100214.66
2023-05-10T16:34:24.562Z,100213.00
2023-05-10T16:37:28.816Z,100214.41
2023-05-10T16:40:33.016Z,100213.72
2023-05-10T16:43:36.916Z,100216.72
2023-05-10T16:46:39.755Z,100220.66
2023-05-10T16:49:42.502Z,100222.81
2023-05-10T16:52:45.220Z,100222.44
2023-05-10T16:55:48.001Z,100225.81
2023-05-10T16:58:50.774Z,100234.47
2023-05-10T17:01:54.168Z,100236.56
2023-05-10T17:04:57.063Z,100238.06
2023-05-10T17:08:02.795Z,100240.47
2023-05-10T17:11:05.705Z,100241.06
2023-05-10T17:14:08.460Z,100241.19
2023-05-10T17:17:11.496Z,100244.88
2023-05-10T17:20:17.302Z,100243.34
2023-05-10T17:23:19.974Z,100231.25
2023-05-10T17:26:22.809Z,100247.75
2023-05-10T17:29:25.483Z,100249.44
2023-05-10T17:32:28.235Z,100254.81
2023-05-10T17:35:31.661Z,100252.44
2023-05-10T17:38:34.335Z,100259.09
2023-05-10T17:41:36.972Z,100261.84
2023-05-10T17:44:39.660Z,100257.63
2023-05-10T17:47:42.345Z,100265.06
2023-05-10T17:50:45.117Z,100267.37
2023-05-10T17:53:47.858Z,100279.53
2023-05-10T17:56:50.496Z,100271.59
2023-05-10T17:59:53.407Z,100276.31
2023-05-10T18:02:56.161Z,100278.41
2023-05-10T18:05:58.928Z,100272.53
2023-05-10T18:09:01.681Z,100277.72
2023-05-10T18:12:04.888Z,100271.56
2023-05-10T18:15:08.461Z,100282.69
2023-05-10T18:18:11.411Z,100278.63
2023-05-10T18:21:14.309Z,100273.50
2023-05-10T18:24:30.181Z,100279.25
2023-05-10T18:27:40.067Z,100287.59
2023-05-10T18:30:42.922Z,100285.50
2023-05-10T18:33:45.659Z,100301.81
2023-05-10T18:36:48.834Z,100303.56
2023-05-10T18:39:51.673Z,100301.56
2023-05-10T18:42:54.723Z,100305.16
2023-05-10T18:45:58.027Z,100304.28
2023-05-10T18:49:00.842Z,100312.19
2023-05-10T18:52:03.585Z,100314.25
2023-05-10T18:55:07.013Z,100312.38
2023-05-10T18:58:09.886Z,100320.00
2023-05-10T19:01:12.848Z,100318.06
2023-05-10T19:04:15.763Z,100324.09
2023-05-10T19:07:21.722Z,100329.06
2023-05-10T19:10:24.731Z,100325.72
2023-05-10T19:13:29.012Z,100330.31
2023-05-10T19:16:31.909Z,100327.69
2023-05-10T19:19:35.803Z,100331.66
2023-05-10T19:25:47.597Z,100333.00
2023-05-10T19:28:54.499Z,100342.19
2023-05-10T19:31:57.535Z,100340.38
2023-05-10T19:35:01.198Z,100340.00
2023-05-10T19:38:04.066Z,100349.94
2023-05-10T19:41:06.830Z,100342.56
2023-05-10T19:44:09.975Z,100353.78
2023-05-10T19:47:13.528Z,100346.22
2023-05-10T19:50:19.533Z,100351.25
2023-05-10T19:53:22.346Z,100332.91
2023-05-10T19:56:27.008Z,100350.59
2023-05-10T19:59:29.734Z,100346.94
2023-05-10T20:02:32.383Z,100351.47
2023-05-10T20:05:35.455Z,100347.47
2023-05-10T20:08:38.150Z,100350.28
2023-05-10T20:11:40.873Z,100342.81
2023-05-10T20:14:43.724Z,100350.03
2023-05-10T20:17:47.644Z,100349.41
2023-05-10T20:20:57.654Z,100354.16
2023-05-10T20:24:00.454Z,100358.63
2023-05-10T20:27:04.713Z,100357.72
2023-05-10T20:30:07.901Z,100360.19
2023-05-10T20:33:10.764Z,100357.53
2023-05-10T20:36:13.467Z,100363.34
2023-05-10T20:39:16.249Z,100367.13
2023-05-10T20:42:19.052Z,100361.19
2023-05-10T20:45:21.622Z,100363.72
2023-05-10T20:48:24.194Z,100365.16
2023-05-10T20:51:27.225Z,100365.66
2023-05-10T20:54:29.893Z,100361.38
2023-05-10T20:57:32.546Z,100364.84
2023-05-10T21:00:35.299Z,100366.28
2023-05-10T21:03:37.880Z,100365.94
2023-05-10T21:06:40.672Z,100357.34
2023-05-10T21:09:43.592Z,100346.84
2023-05-10T21:12:46.568Z,100340.97
2023-05-10T21:15:49.314Z,100349.00
2023-05-10T21:18:52.102Z,100351.25
2023-05-10T21:21:56.347Z,100347.41
2023-05-10T21:24:59.619Z,100341.81
2023-05-10T21:28:02.237Z,100353.81
2023-05-10T21:31:04.987Z,100348.28
2023-05-10T21:34:07.542Z,100347.69
2023-05-10T21:37:11.225Z,100349.28
2023-05-10T21:40:13.967Z,100338.31
2023-05-10T21:43:16.663Z,100354.34
2023-05-10T21:46:19.774Z,100359.19
2023-05-10T21:49:22.472Z,100355.72
2023-05-10T21:52:25.055Z,100355.94
2023-05-10T21:55:27.828Z,100352.66
2023-05-10T21:58:30.425Z,100353.53
2023-05-10T22:01:33.042Z,100358.50
2023-05-10T22:04:37.073Z,100355.44
2023-05-10T22:07:39.745Z,100358.41
2023-05-10T22:10:42.354Z,100368.44
2023-05-10T22:13:44.981Z,100363.50
2023-05-10T22:16:47.649Z,100357.94
2023-05-10T22:19:50.277Z,100366.50
2023-05-10T22:22:55.042Z,100364.53
2023-05-10T22:26:04.223Z,100361.75
2023-05-10T22:29:06.823Z,100356.81
2023-05-10T22:32:12.284Z,100366.53
2023-05-10T22:35:14.878Z,100343.78
2023-05-10T22:38:17.474Z,100359.75
2023-05-10T22:41:23.536Z,100359.25
2023-05-10T22:44:26.508Z,100363.53
2023-05-10T22:47:29.118Z,100358.09
2023-05-10T22:50:31.989Z,100366.66
2023-05-10T22:53:34.584Z,100363.69
2023-05-10T22:56:37.254Z,100363.22
2023-05-10T22:59:39.872Z,100364.34
2023-05-10T23:02:43.305Z,100365.84
2023-05-10T23:05:45.984Z,100365.84
2023-05-10T23:08:48.566Z,100364.03
2023-05-10T23:11:51.181Z,100372.75
2023-05-10T23:14:54.972Z,100373.41
2023-05-10T23:18:01.155Z,100365.50
2023-05-10T23:21:03.828Z,100371.75
2023-05-10T23:24:08.772Z,100372.75
2023-05-10T23:27:11.521Z,100369.78
2023-05-10T23:30:14.234Z,100368.97
2023-05-10T23:33:17.039Z,100361.00
2023-05-10T23:36:21.860Z,100358.53
2023-05-10T23:39:24.359Z,100359.37
2023-05-10T23:42:27.009Z,100361.88
2023-05-10T23:45:29.633Z,100356.91
2023-05-10T23:48:32.241Z,100358.91
2023-05-10T23:51:34.824Z,100360.00
2023-05-10T23:54:37.644Z,100364.47
2023-05-10T23:57:43.770Z,100368.22
